Terminal Aerodrome Forecast
Issued by NWS

Current Version | Previous Version | Text Only | Print | Product List | Glossary On
Versions: 1 2 3 4 5 6 7 8 9 10 11 12 13 14 15 16 17
000
FTUS46 KPDT 311120
TAFBDN
TAF
KBDN 311120Z 3112/0112 17005KT P6SM SCT250
     FM312100 32010KT P6SM FEW070 SCT250
     FM010400 VRB03KT P6SM BKN200
     FM010900 20005KT P6SM BKN200=

USA.gov is the U.S. government's official web portal to all federal, state and local government web resources and services.